sensor_id;sensor_type;location;lat;lon;timestamp;P1;durP1;ratioP1;P2;durP2;ratioP2
7045;SDS011;3564;53.326;10.356;2023-06-04T00:01:40;1.73;;;1.27;;
7045;SDS011;3564;53.326;10.356;2023-06-04T00:04:06;2.03;;;1.60;;
7045;SDS011;3564;53.326;10.356;2023-06-04T00:06:31;2.00;;;1.50;;
7045;SDS011;3564;53.326;10.356;2023-06-04T00:08:57;2.37;;;1.80;;
7045;SDS011;3564;53.326;10.356;2023-06-04T00:11:23;3.10;;;2.70;;
7045;SDS011;3564;53.326;10.356;2023-06-04T00:13:48;2.70;;;2.13;;
7045;SDS011;3564;53.326;10.356;2023-06-04T00:16:14;1.70;;;1.60;;
7045;SDS011;3564;53.326;10.356;2023-06-04T00:18:39;2.87;;;1.70;;
7045;SDS011;3564;53.326;10.356;2023-06-04T00:21:05;1.97;;;1.77;;
7045;SDS011;3564;53.326;10.356;2023-06-04T00:23:31;1.90;;;1.70;;
7045;SDS011;3564;53.326;10.356;2023-06-04T00:25:56;2.20;;;1.90;;
7045;SDS011;3564;53.326;10.356;2023-06-04T00:28:22;1.90;;;1.80;;
7045;SDS011;3564;53.326;10.356;2023-06-04T00:30:47;2.97;;;1.70;;
7045;SDS011;3564;53.326;10.356;2023-06-04T00:33:13;1.60;;;1.50;;
7045;SDS011;3564;53.326;10.356;2023-06-04T00:35:38;4.03;;;1.90;;
7045;SDS011;3564;53.326;10.356;2023-06-04T00:38:04;1.50;;;1.40;;
7045;SDS011;3564;53.326;10.356;2023-06-04T00:40:29;2.67;;;1.60;;
7045;SDS011;3564;53.326;10.356;2023-06-04T00:42:55;1.50;;;1.40;;
7045;SDS011;3564;53.326;10.356;2023-06-04T00:45:20;2.23;;;1.60;;
7045;SDS011;3564;53.326;10.356;2023-06-04T00:47:46;2.50;;;2.00;;
7045;SDS011;3564;53.326;10.356;2023-06-04T00:50:12;4.00;;;1.90;;
7045;SDS011;3564;53.326;10.356;2023-06-04T00:52:39;2.00;;;1.70;;
7045;SDS011;3564;53.326;10.356;2023-06-04T00:55:05;2.07;;;1.80;;
7045;SDS011;3564;53.326;10.356;2023-06-04T00:57:31;3.97;;;1.90;;
7045;SDS011;3564;53.326;10.356;2023-06-04T00:59:58;3.13;;;2.20;;
7045;SDS011;3564;53.326;10.356;2023-06-04T01:02:24;1.90;;;1.67;;
7045;SDS011;3564;53.326;10.356;2023-06-04T01:07:39;3.10;;;1.87;;
7045;SDS011;3564;53.326;10.356;2023-06-04T01:10:06;2.90;;;2.00;;
7045;SDS011;3564;53.326;10.356;2023-06-04T01:12:32;2.47;;;2.20;;
7045;SDS011;3564;53.326;10.356;2023-06-04T01:14:58;4.13;;;2.10;;
7045;SDS011;3564;53.326;10.356;2023-06-04T01:17:37;2.00;;;1.80;;
7045;SDS011;3564;53.326;10.356;2023-06-04T01:20:12;3.70;;;2.13;;
7045;SDS011;3564;53.326;10.356;2023-06-04T01:25:25;3.03;;;1.70;;
7045;SDS011;3564;53.326;10.356;2023-06-04T01:27:57;3.20;;;2.40;;
7045;SDS011;3564;53.326;10.356;2023-06-04T01:30:24;2.90;;;2.00;;
7045;SDS011;3564;53.326;10.356;2023-06-04T01:32:52;3.93;;;1.90;;
7045;SDS011;3564;53.326;10.356;2023-06-04T01:35:19;1.97;;;1.77;;
7045;SDS011;3564;53.326;10.356;2023-06-04T01:37:46;2.10;;;1.90;;
7045;SDS011;3564;53.326;10.356;2023-06-04T01:40:12;2.10;;;1.90;;
7045;SDS011;3564;53.326;10.356;2023-06-04T01:42:38;2.73;;;2.00;;
7045;SDS011;3564;53.326;10.356;2023-06-04T01:45:04;5.60;;;2.00;;
7045;SDS011;3564;53.326;10.356;2023-06-04T01:47:30;3.53;;;1.60;;
7045;SDS011;3564;53.326;10.356;2023-06-04T01:49:55;3.70;;;1.90;;
7045;SDS011;3564;53.326;10.356;2023-06-04T01:52:21;4.60;;;1.70;;
7045;SDS011;3564;53.326;10.356;2023-06-04T01:54:47;2.03;;;1.83;;
7045;SDS011;3564;53.326;10.356;2023-06-04T01:57:18;2.83;;;1.60;;
7045;SDS011;3564;53.326;10.356;2023-06-04T01:59:45;3.13;;;1.83;;
7045;SDS011;3564;53.326;10.356;2023-06-04T02:02:11;2.37;;;1.80;;
7045;SDS011;3564;53.326;10.356;2023-06-04T02:04:37;2.60;;;1.80;;
7045;SDS011;3564;53.326;10.356;2023-06-04T02:07:09;2.17;;;1.97;;
7045;SDS011;3564;53.326;10.356;2023-06-04T02:09:36;2.47;;;1.70;;
7045;SDS011;3564;53.326;10.356;2023-06-04T02:12:02;2.93;;;1.83;;
7045;SDS011;3564;53.326;10.356;2023-06-04T02:14:30;4.60;;;1.97;;
7045;SDS011;3564;53.326;10.356;2023-06-04T02:16:55;2.60;;;2.10;;
7045;SDS011;3564;53.326;10.356;2023-06-04T02:19:25;2.87;;;1.73;;
7045;SDS011;3564;53.326;10.356;2023-06-04T02:21:52;2.80;;;1.80;;
7045;SDS011;3564;53.326;10.356;2023-06-04T02:24:19;2.10;;;1.53;;
7045;SDS011;3564;53.326;10.356;2023-06-04T02:26:45;2.33;;;1.80;;
7045;SDS011;3564;53.326;10.356;2023-06-04T02:29:11;2.10;;;1.80;;
7045;SDS011;3564;53.326;10.356;2023-06-04T02:31:37;5.90;;;2.07;;
7045;SDS011;3564;53.326;10.356;2023-06-04T02:34:02;2.17;;;1.70;;
7045;SDS011;3564;53.326;10.356;2023-06-04T02:36:28;3.47;;;2.17;;
7045;SDS011;3564;53.326;10.356;2023-06-04T02:38:55;5.87;;;2.30;;
7045;SDS011;3564;53.326;10.356;2023-06-04T02:41:21;2.73;;;1.70;;
7045;SDS011;3564;53.326;10.356;2023-06-04T02:43:47;2.47;;;1.80;;
7045;SDS011;3564;53.326;10.356;2023-06-04T02:46:13;1.93;;;1.80;;
7045;SDS011;3564;53.326;10.356;2023-06-04T02:48:38;2.37;;;1.77;;
7045;SDS011;3564;53.326;10.356;2023-06-04T02:51:04;3.00;;;2.00;;
7045;SDS011;3564;53.326;10.356;2023-06-04T02:53:30;4.83;;;2.30;;
7045;SDS011;3564;53.326;10.356;2023-06-04T02:55:55;1.90;;;1.70;;
7045;SDS011;3564;53.326;10.356;2023-06-04T02:58:21;3.90;;;1.73;;
7045;SDS011;3564;53.326;10.356;2023-06-04T03:00:51;1.90;;;1.80;;
7045;SDS011;3564;53.326;10.356;2023-06-04T03:03:17;4.40;;;2.23;;
7045;SDS011;3564;53.326;10.356;2023-06-04T03:05:43;2.60;;;2.20;;
7045;SDS011;3564;53.326;10.356;2023-06-04T03:08:08;2.10;;;1.87;;
7045;SDS011;3564;53.326;10.356;2023-06-04T03:10:34;2.17;;;1.90;;
7045;SDS011;3564;53.326;10.356;2023-06-04T03:12:59;2.27;;;1.80;;
7045;SDS011;3564;53.326;10.356;2023-06-04T03:15:25;2.00;;;1.80;;
7045;SDS011;3564;53.326;10.356;2023-06-04T03:17:51;2.97;;;2.00;;
7045;SDS011;3564;53.326;10.356;2023-06-04T03:20:17;4.53;;;1.70;;
7045;SDS011;3564;53.326;10.356;2023-06-04T03:22:43;2.23;;;2.03;;
7045;SDS011;3564;53.326;10.356;2023-06-04T03:25:08;2.83;;;1.70;;
7045;SDS011;3564;53.326;10.356;2023-06-04T03:27:34;2.73;;;2.03;;
7045;SDS011;3564;53.326;10.356;2023-06-04T03:30:00;3.47;;;2.17;;
7045;SDS011;3564;53.326;10.356;2023-06-04T03:32:28;2.50;;;2.30;;
7045;SDS011;3564;53.326;10.356;2023-06-04T03:34:54;3.47;;;1.90;;
7045;SDS011;3564;53.326;10.356;2023-06-04T03:37:19;2.73;;;2.00;;
7045;SDS011;3564;53.326;10.356;2023-06-04T03:39:45;2.43;;;2.17;;
7045;SDS011;3564;53.326;10.356;2023-06-04T03:42:10;3.03;;;1.87;;
7045;SDS011;3564;53.326;10.356;2023-06-04T03:44:36;2.70;;;1.93;;
7045;SDS011;3564;53.326;10.356;2023-06-04T03:47:01;2.43;;;1.80;;
7045;SDS011;3564;53.326;10.356;2023-06-04T03:49:27;5.17;;;2.37;;
7045;SDS011;3564;53.326;10.356;2023-06-04T03:51:53;2.67;;;2.30;;
7045;SDS011;3564;53.326;10.356;2023-06-04T03:54:18;3.23;;;1.90;;
7045;SDS011;3564;53.326;10.356;2023-06-04T03:56:45;2.70;;;2.00;;
7045;SDS011;3564;53.326;10.356;2023-06-04T03:59:11;3.30;;;1.90;;
7045;SDS011;3564;53.326;10.356;2023-06-04T04:01:36;3.53;;;2.13;;
7045;SDS011;3564;53.326;10.356;2023-06-04T04:04:03;5.47;;;2.00;;
7045;SDS011;3564;53.326;10.356;2023-06-04T04:06:30;2.80;;;1.93;;
7045;SDS011;3564;53.326;10.356;2023-06-04T04:08:55;4.67;;;2.20;;
7045;SDS011;3564;53.326;10.356;2023-06-04T04:11:22;2.90;;;1.90;;
7045;SDS011;3564;53.326;10.356;2023-06-04T04:13:48;2.27;;;1.67;;
7045;SDS011;3564;53.326;10.356;2023-06-04T04:16:13;2.97;;;2.23;;
7045;SDS011;3564;53.326;10.356;2023-06-04T04:18:41;2.80;;;2.40;;
7045;SDS011;3564;53.326;10.356;2023-06-04T04:21:08;2.20;;;2.00;;
7045;SDS011;3564;53.326;10.356;2023-06-04T04:23:37;5.97;;;2.43;;
7045;SDS011;3564;53.326;10.356;2023-06-04T04:26:05;2.30;;;2.00;;
7045;SDS011;3564;53.326;10.356;2023-06-04T04:28:32;3.77;;;2.20;;
7045;SDS011;3564;53.326;10.356;2023-06-04T04:30:59;3.30;;;2.40;;
7045;SDS011;3564;53.326;10.356;2023-06-04T04:33:27;4.27;;;2.30;;
7045;SDS011;3564;53.326;10.356;2023-06-04T04:35:57;5.43;;;2.30;;
7045;SDS011;3564;53.326;10.356;2023-06-04T04:38:24;3.13;;;2.30;;
7045;SDS011;3564;53.326;10.356;2023-06-04T04:40:50;3.43;;;2.30;;
7045;SDS011;3564;53.326;10.356;2023-06-04T04:43:17;3.77;;;2.43;;
7045;SDS011;3564;53.326;10.356;2023-06-04T04:46:04;2.50;;;2.30;;
7045;SDS011;3564;53.326;10.356;2023-06-04T04:48:30;3.33;;;2.10;;
7045;SDS011;3564;53.326;10.356;2023-06-04T04:50:57;3.23;;;2.40;;
7045;SDS011;3564;53.326;10.356;2023-06-04T04:53:22;4.53;;;2.37;;
7045;SDS011;3564;53.326;10.356;2023-06-04T04:55:48;3.13;;;2.57;;
7045;SDS011;3564;53.326;10.356;2023-06-04T04:58:14;3.07;;;2.57;;
7045;SDS011;3564;53.326;10.356;2023-06-04T05:00:40;3.07;;;2.77;;
7045;SDS011;3564;53.326;10.356;2023-06-04T05:03:08;3.90;;;2.60;;
7045;SDS011;3564;53.326;10.356;2023-06-04T05:05:33;4.20;;;2.47;;
7045;SDS011;3564;53.326;10.356;2023-06-04T05:07:59;2.77;;;2.20;;
7045;SDS011;3564;53.326;10.356;2023-06-04T05:10:25;2.87;;;2.27;;
7045;SDS011;3564;53.326;10.356;2023-06-04T05:12:54;3.07;;;2.77;;
7045;SDS011;3564;53.326;10.356;2023-06-04T05:15:20;2.83;;;2.60;;
7045;SDS011;3564;53.326;10.356;2023-06-04T05:17:46;3.50;;;2.63;;
7045;SDS011;3564;53.326;10.356;2023-06-04T05:20:12;3.30;;;2.80;;
7045;SDS011;3564;53.326;10.356;2023-06-04T05:22:39;3.43;;;2.60;;
7045;SDS011;3564;53.326;10.356;2023-06-04T05:25:05;2.73;;;2.43;;
7045;SDS011;3564;53.326;10.356;2023-06-04T05:27:31;3.67;;;2.93;;
7045;SDS011;3564;53.326;10.356;2023-06-04T05:29:57;3.13;;;2.50;;
7045;SDS011;3564;53.326;10.356;2023-06-04T05:32:23;2.80;;;2.60;;
7045;SDS011;3564;53.326;10.356;2023-06-04T05:34:53;6.13;;;2.10;;
7045;SDS011;3564;53.326;10.356;2023-06-04T05:37:21;6.23;;;2.53;;
7045;SDS011;3564;53.326;10.356;2023-06-04T05:39:48;4.30;;;2.40;;
7045;SDS011;3564;53.326;10.356;2023-06-04T05:42:15;5.10;;;2.47;;
7045;SDS011;3564;53.326;10.356;2023-06-04T05:44:40;2.90;;;2.50;;
7045;SDS011;3564;53.326;10.356;2023-06-04T05:47:06;3.13;;;2.60;;
7045;SDS011;3564;53.326;10.356;2023-06-04T05:49:33;2.77;;;2.10;;
7045;SDS011;3564;53.326;10.356;2023-06-04T05:52:00;5.83;;;2.40;;
7045;SDS011;3564;53.326;10.356;2023-06-04T05:54:26;3.10;;;2.40;;
7045;SDS011;3564;53.326;10.356;2023-06-04T05:56:54;3.30;;;2.43;;
7045;SDS011;3564;53.326;10.356;2023-06-04T05:59:20;2.33;;;1.67;;
7045;SDS011;3564;53.326;10.356;2023-06-04T06:01:46;2.50;;;2.13;;
7045;SDS011;3564;53.326;10.356;2023-06-04T06:04:13;2.63;;;1.80;;
7045;SDS011;3564;53.326;10.356;2023-06-04T06:06:42;2.37;;;2.17;;
7045;SDS011;3564;53.326;10.356;2023-06-04T06:09:13;2.70;;;2.10;;
7045;SDS011;3564;53.326;10.356;2023-06-04T06:11:40;3.47;;;2.20;;
7045;SDS011;3564;53.326;10.356;2023-06-04T06:14:06;2.20;;;1.93;;
7045;SDS011;3564;53.326;10.356;2023-06-04T06:16:31;3.60;;;2.30;;
7045;SDS011;3564;53.326;10.356;2023-06-04T06:19:01;3.23;;;1.90;;
7045;SDS011;3564;53.326;10.356;2023-06-04T06:21:26;2.33;;;2.13;;
7045;SDS011;3564;53.326;10.356;2023-06-04T06:23:53;3.07;;;2.17;;
7045;SDS011;3564;53.326;10.356;2023-06-04T06:26:19;3.13;;;1.93;;
7045;SDS011;3564;53.326;10.356;2023-06-04T06:28:44;3.27;;;1.80;;
7045;SDS011;3564;53.326;10.356;2023-06-04T06:31:12;3.20;;;1.70;;
7045;SDS011;3564;53.326;10.356;2023-06-04T06:33:38;2.00;;;1.73;;
7045;SDS011;3564;53.326;10.356;2023-06-04T06:36:13;2.63;;;2.00;;
7045;SDS011;3564;53.326;10.356;2023-06-04T06:38:38;2.17;;;1.80;;
7045;SDS011;3564;53.326;10.356;2023-06-04T06:41:05;1.70;;;1.60;;
7045;SDS011;3564;53.326;10.356;2023-06-04T06:43:30;3.17;;;2.07;;
7045;SDS011;3564;53.326;10.356;2023-06-04T06:45:57;3.33;;;1.83;;
7045;SDS011;3564;53.326;10.356;2023-06-04T06:48:23;2.47;;;2.17;;
7045;SDS011;3564;53.326;10.356;2023-06-04T06:50:48;2.87;;;2.20;;
7045;SDS011;3564;53.326;10.356;2023-06-04T06:53:14;3.60;;;2.00;;
7045;SDS011;3564;53.326;10.356;2023-06-04T06:55:40;3.30;;;2.10;;
7045;SDS011;3564;53.326;10.356;2023-06-04T06:58:05;5.90;;;2.90;;
7045;SDS011;3564;53.326;10.356;2023-06-04T07:00:31;2.57;;;2.07;;
7045;SDS011;3564;53.326;10.356;2023-06-04T07:02:56;3.30;;;2.40;;
7045;SDS011;3564;53.326;10.356;2023-06-04T07:05:22;2.50;;;2.03;;
7045;SDS011;3564;53.326;10.356;2023-06-04T07:07:47;3.67;;;1.90;;
7045;SDS011;3564;53.326;10.356;2023-06-04T07:10:13;4.17;;;2.10;;
7045;SDS011;3564;53.326;10.356;2023-06-04T07:12:39;2.63;;;2.20;;
7045;SDS011;3564;53.326;10.356;2023-06-04T07:15:05;3.23;;;2.10;;
7045;SDS011;3564;53.326;10.356;2023-06-04T07:17:33;3.73;;;2.27;;
7045;SDS011;3564;53.326;10.356;2023-06-04T07:19:59;2.20;;;1.97;;
7045;SDS011;3564;53.326;10.356;2023-06-04T07:22:25;2.67;;;2.30;;
7045;SDS011;3564;53.326;10.356;2023-06-04T07:24:51;2.93;;;2.03;;
7045;SDS011;3564;53.326;10.356;2023-06-04T07:27:17;2.00;;;1.90;;
7045;SDS011;3564;53.326;10.356;2023-06-04T07:29:44;3.60;;;2.60;;
7045;SDS011;3564;53.326;10.356;2023-06-04T07:32:10;1.97;;;1.77;;
7045;SDS011;3564;53.326;10.356;2023-06-04T07:34:37;4.87;;;2.30;;
7045;SDS011;3564;53.326;10.356;2023-06-04T07:37:04;3.50;;;1.83;;
7045;SDS011;3564;53.326;10.356;2023-06-04T07:39:30;2.10;;;1.90;;
7045;SDS011;3564;53.326;10.356;2023-06-04T07:41:56;1.73;;;1.63;;
7045;SDS011;3564;53.326;10.356;2023-06-04T07:44:21;3.83;;;1.50;;
7045;SDS011;3564;53.326;10.356;2023-06-04T07:46:47;1.80;;;1.67;;
7045;SDS011;3564;53.326;10.356;2023-06-04T07:49:13;1.60;;;1.50;;
7045;SDS011;3564;53.326;10.356;2023-06-04T07:51:39;3.03;;;1.80;;
7045;SDS011;3564;53.326;10.356;2023-06-04T07:54:04;1.80;;;1.57;;
7045;SDS011;3564;53.326;10.356;2023-06-04T07:56:30;1.97;;;1.77;;
7045;SDS011;3564;53.326;10.356;2023-06-04T07:58:56;2.03;;;1.60;;
7045;SDS011;3564;53.326;10.356;2023-06-04T08:01:23;2.20;;;1.63;;
7045;SDS011;3564;53.326;10.356;2023-06-04T08:03:49;1.50;;;1.40;;
7045;SDS011;3564;53.326;10.356;2023-06-04T08:06:15;1.77;;;1.67;;
7045;SDS011;3564;53.326;10.356;2023-06-04T08:08:44;1.30;;;1.20;;
7045;SDS011;3564;53.326;10.356;2023-06-04T08:11:20;1.57;;;1.30;;
7045;SDS011;3564;53.326;10.356;2023-06-04T08:13:47;1.40;;;1.30;;
7045;SDS011;3564;53.326;10.356;2023-06-04T08:16:13;2.90;;;1.40;;
7045;SDS011;3564;53.326;10.356;2023-06-04T08:18:39;1.57;;;1.37;;
7045;SDS011;3564;53.326;10.356;2023-06-04T08:21:05;1.97;;;1.40;;
7045;SDS011;3564;53.326;10.356;2023-06-04T08:23:34;1.30;;;1.20;;
7045;SDS011;3564;53.326;10.356;2023-06-04T08:26:00;1.20;;;1.10;;
7045;SDS011;3564;53.326;10.356;2023-06-04T08:28:25;2.27;;;1.40;;
7045;SDS011;3564;53.326;10.356;2023-06-04T08:30:51;1.50;;;1.30;;
7045;SDS011;3564;53.326;10.356;2023-06-04T08:33:16;1.23;;;1.13;;
7045;SDS011;3564;53.326;10.356;2023-06-04T08:35:42;1.97;;;1.20;;
7045;SDS011;3564;53.326;10.356;2023-06-04T08:38:07;1.50;;;1.30;;
7045;SDS011;3564;53.326;10.356;2023-06-04T08:40:33;1.43;;;1.33;;
7045;SDS011;3564;53.326;10.356;2023-06-04T08:43:00;2.33;;;1.20;;
7045;SDS011;3564;53.326;10.356;2023-06-04T08:45:26;1.40;;;1.30;;
7045;SDS011;3564;53.326;10.356;2023-06-04T08:47:52;1.40;;;1.30;;
7045;SDS011;3564;53.326;10.356;2023-06-04T08:50:19;3.03;;;1.30;;
7045;SDS011;3564;53.326;10.356;2023-06-04T08:52:46;1.43;;;1.33;;
7045;SDS011;3564;53.326;10.356;2023-06-04T08:55:13;1.17;;;1.10;;
7045;SDS011;3564;53.326;10.356;2023-06-04T08:57:39;1.63;;;1.40;;
7045;SDS011;3564;53.326;10.356;2023-06-04T09:00:05;1.33;;;1.23;;
7045;SDS011;3564;53.326;10.356;2023-06-04T09:02:33;1.50;;;1.27;;
7045;SDS011;3564;53.326;10.356;2023-06-04T09:05:02;2.43;;;1.27;;
7045;SDS011;3564;53.326;10.356;2023-06-04T09:07:29;1.30;;;1.20;;
7045;SDS011;3564;53.326;10.356;2023-06-04T09:09:59;1.50;;;1.40;;
7045;SDS011;3564;53.326;10.356;2023-06-04T09:12:25;1.47;;;1.23;;
7045;SDS011;3564;53.326;10.356;2023-06-04T09:14:52;1.87;;;1.20;;
7045;SDS011;3564;53.326;10.356;2023-06-04T09:17:21;4.83;;;1.60;;
7045;SDS011;3564;53.326;10.356;2023-06-04T09:19:48;2.17;;;1.30;;
7045;SDS011;3564;53.326;10.356;2023-06-04T09:22:15;1.30;;;1.20;;
7045;SDS011;3564;53.326;10.356;2023-06-04T09:24:41;3.83;;;1.50;;
7045;SDS011;3564;53.326;10.356;2023-06-04T09:27:16;1.57;;;1.33;;
7045;SDS011;3564;53.326;10.356;2023-06-04T09:29:49;1.23;;;1.13;;
7045;SDS011;3564;53.326;10.356;2023-06-04T09:32:26;2.10;;;1.20;;
7045;SDS011;3564;53.326;10.356;2023-06-04T09:34:53;3.33;;;1.40;;
7045;SDS011;3564;53.326;10.356;2023-06-04T09:37:20;2.63;;;1.47;;
7045;SDS011;3564;53.326;10.356;2023-06-04T09:39:55;2.70;;;1.40;;
7045;SDS011;3564;53.326;10.356;2023-06-04T09:42:22;1.30;;;1.20;;
7045;SDS011;3564;53.326;10.356;2023-06-04T09:44:48;2.20;;;1.40;;
7045;SDS011;3564;53.326;10.356;2023-06-04T09:47:14;1.80;;;1.30;;
7045;SDS011;3564;53.326;10.356;2023-06-04T09:49:44;2.23;;;1.40;;
7045;SDS011;3564;53.326;10.356;2023-06-04T09:52:12;1.40;;;1.30;;
7045;SDS011;3564;53.326;10.356;2023-06-04T09:54:41;4.00;;;1.50;;
7045;SDS011;3564;53.326;10.356;2023-06-04T09:57:18;3.40;;;1.40;;
7045;SDS011;3564;53.326;10.356;2023-06-04T10:00:01;1.30;;;1.20;;
7045;SDS011;3564;53.326;10.356;2023-06-04T10:02:33;2.60;;;1.50;;
7045;SDS011;3564;53.326;10.356;2023-06-04T10:04:59;2.93;;;1.37;;
7045;SDS011;3564;53.326;10.356;2023-06-04T10:07:25;2.63;;;1.70;;
7045;SDS011;3564;53.326;10.356;2023-06-04T10:09:51;1.70;;;1.30;;
7045;SDS011;3564;53.326;10.356;2023-06-04T10:12:20;2.43;;;1.40;;
7045;SDS011;3564;53.326;10.356;2023-06-04T10:14:52;1.90;;;1.40;;
7045;SDS011;3564;53.326;10.356;2023-06-04T10:17:24;3.63;;;1.60;;
7045;SDS011;3564;53.326;10.356;2023-06-04T10:19:53;3.20;;;1.30;;
7045;SDS011;3564;53.326;10.356;2023-06-04T10:22:21;2.17;;;1.40;;
7045;SDS011;3564;53.326;10.356;2023-06-04T10:24:46;1.50;;;1.27;;
7045;SDS011;3564;53.326;10.356;2023-06-04T10:27:12;1.30;;;1.20;;
7045;SDS011;3564;53.326;10.356;2023-06-04T10:29:38;2.57;;;1.60;;
7045;SDS011;3564;53.326;10.356;2023-06-04T10:32:04;1.70;;;1.33;;
7045;SDS011;3564;53.326;10.356;2023-06-04T10:34:30;2.43;;;1.40;;
7045;SDS011;3564;53.326;10.356;2023-06-04T10:36:56;3.37;;;1.40;;
7045;SDS011;3564;53.326;10.356;2023-06-04T10:39:28;2.10;;;1.60;;
7045;SDS011;3564;53.326;10.356;2023-06-04T10:42:03;2.00;;;1.20;;
7045;SDS011;3564;53.326;10.356;2023-06-04T10:44:49;1.43;;;1.33;;
7045;SDS011;3564;53.326;10.356;2023-06-04T10:47:19;1.67;;;1.47;;
7045;SDS011;3564;53.326;10.356;2023-06-04T10:49:47;1.97;;;1.40;;
7045;SDS011;3564;53.326;10.356;2023-06-04T10:52:14;1.43;;;1.23;;
7045;SDS011;3564;53.326;10.356;2023-06-04T10:54:41;3.90;;;1.30;;
7045;SDS011;3564;53.326;10.356;2023-06-04T10:57:12;1.50;;;1.40;;
7045;SDS011;3564;53.326;10.356;2023-06-04T10:59:42;1.90;;;1.30;;
7045;SDS011;3564;53.326;10.356;2023-06-04T11:02:21;5.60;;;1.50;;
7045;SDS011;3564;53.326;10.356;2023-06-04T11:04:57;3.50;;;1.53;;
7045;SDS011;3564;53.326;10.356;2023-06-04T11:07:41;1.67;;;1.50;;
7045;SDS011;3564;53.326;10.356;2023-06-04T11:10:09;1.97;;;1.40;;
7045;SDS011;3564;53.326;10.356;2023-06-04T11:12:42;2.90;;;1.40;;
7045;SDS011;3564;53.326;10.356;2023-06-04T11:15:12;1.93;;;1.40;;
7045;SDS011;3564;53.326;10.356;2023-06-04T11:17:48;2.23;;;1.80;;
7045;SDS011;3564;53.326;10.356;2023-06-04T11:20:19;1.50;;;1.40;;
7045;SDS011;3564;53.326;10.356;2023-06-04T11:25:18;2.40;;;1.50;;
7045;SDS011;3564;53.326;10.356;2023-06-04T11:27:46;2.70;;;1.40;;
7045;SDS011;3564;53.326;10.356;2023-06-04T11:30:13;1.83;;;1.40;;
7045;SDS011;3564;53.326;10.356;2023-06-04T11:32:39;1.90;;;1.50;;
7045;SDS011;3564;53.326;10.356;2023-06-04T11:35:05;2.43;;;1.67;;
7045;SDS011;3564;53.326;10.356;2023-06-04T11:37:31;1.97;;;1.40;;
7045;SDS011;3564;53.326;10.356;2023-06-04T11:39:58;3.17;;;1.40;;
7045;SDS011;3564;53.326;10.356;2023-06-04T11:42:25;2.73;;;1.70;;
7045;SDS011;3564;53.326;10.356;2023-06-04T11:44:58;1.60;;;1.50;;
7045;SDS011;3564;53.326;10.356;2023-06-04T11:47:24;2.23;;;1.33;;
7045;SDS011;3564;53.326;10.356;2023-06-04T11:49:56;1.60;;;1.50;;
7045;SDS011;3564;53.326;10.356;2023-06-04T11:52:22;2.13;;;1.40;;
7045;SDS011;3564;53.326;10.356;2023-06-04T11:54:48;2.70;;;1.70;;
7045;SDS011;3564;53.326;10.356;2023-06-04T11:57:14;1.57;;;1.40;;
7045;SDS011;3564;53.326;10.356;2023-06-04T11:59:40;2.80;;;1.63;;
7045;SDS011;3564;53.326;10.356;2023-06-04T12:02:06;2.43;;;1.70;;
7045;SDS011;3564;53.326;10.356;2023-06-04T12:04:32;3.43;;;1.53;;
7045;SDS011;3564;53.326;10.356;2023-06-04T12:06:59;3.10;;;1.47;;
7045;SDS011;3564;53.326;10.356;2023-06-04T12:09:29;1.93;;;1.50;;
7045;SDS011;3564;53.326;10.356;2023-06-04T12:12:15;3.03;;;1.70;;
7045;SDS011;3564;53.326;10.356;2023-06-04T12:14:56;4.90;;;1.40;;
7045;SDS011;3564;53.326;10.356;2023-06-04T12:17:23;2.50;;;1.50;;
7045;SDS011;3564;53.326;10.356;2023-06-04T12:19:49;1.87;;;1.60;;
7045;SDS011;3564;53.326;10.356;2023-06-04T12:22:15;2.40;;;1.60;;
7045;SDS011;3564;53.326;10.356;2023-06-04T12:27:21;3.20;;;1.40;;
7045;SDS011;3564;53.326;10.356;2023-06-04T12:29:58;2.23;;;1.80;;
7045;SDS011;3564;53.326;10.356;2023-06-04T12:32:28;2.17;;;1.60;;
7045;SDS011;3564;53.326;10.356;2023-06-04T12:34:54;1.73;;;1.40;;
7045;SDS011;3564;53.326;10.356;2023-06-04T12:37:21;4.40;;;1.97;;
7045;SDS011;3564;53.326;10.356;2023-06-04T12:39:47;2.97;;;1.73;;
7045;SDS011;3564;53.326;10.356;2023-06-04T12:42:15;1.83;;;1.47;;
7045;SDS011;3564;53.326;10.356;2023-06-04T12:44:44;2.67;;;1.70;;
7045;SDS011;3564;53.326;10.356;2023-06-04T12:47:09;3.27;;;1.60;;
7045;SDS011;3564;53.326;10.356;2023-06-04T12:49:36;3.57;;;1.90;;
7045;SDS011;3564;53.326;10.356;2023-06-04T12:52:02;3.53;;;1.80;;
7045;SDS011;3564;53.326;10.356;2023-06-04T12:54:29;3.70;;;1.70;;
7045;SDS011;3564;53.326;10.356;2023-06-04T12:56:55;3.00;;;1.50;;
7045;SDS011;3564;53.326;10.356;2023-06-04T12:59:22;4.17;;;1.67;;
7045;SDS011;3564;53.326;10.356;2023-06-04T13:01:50;3.90;;;1.60;;
7045;SDS011;3564;53.326;10.356;2023-06-04T13:04:16;2.50;;;1.57;;
7045;SDS011;3564;53.326;10.356;2023-06-04T13:06:42;3.83;;;1.33;;
7045;SDS011;3564;53.326;10.356;2023-06-04T13:09:07;4.90;;;2.03;;
7045;SDS011;3564;53.326;10.356;2023-06-04T13:11:40;2.70;;;1.70;;
7045;SDS011;3564;53.326;10.356;2023-06-04T13:14:22;1.50;;;1.40;;
7045;SDS011;3564;53.326;10.356;2023-06-04T13:16:47;2.77;;;1.67;;
7045;SDS011;3564;53.326;10.356;2023-06-04T13:19:14;3.00;;;2.10;;
7045;SDS011;3564;53.326;10.356;2023-06-04T13:21:39;7.23;;;1.70;;
7045;SDS011;3564;53.326;10.356;2023-06-04T13:24:05;3.17;;;2.20;;
7045;SDS011;3564;53.326;10.356;2023-06-04T13:26:32;4.20;;;1.50;;
7045;SDS011;3564;53.326;10.356;2023-06-04T13:28:58;3.53;;;1.67;;
7045;SDS011;3564;53.326;10.356;2023-06-04T13:31:23;4.53;;;2.03;;
7045;SDS011;3564;53.326;10.356;2023-06-04T13:33:49;3.90;;;1.80;;
7045;SDS011;3564;53.326;10.356;2023-06-04T13:36:14;2.43;;;1.67;;
7045;SDS011;3564;53.326;10.356;2023-06-04T13:38:40;2.80;;;2.00;;
7045;SDS011;3564;53.326;10.356;2023-06-04T13:41:07;3.28;;;1.88;;
7045;SDS011;3564;53.326;10.356;2023-06-04T13:43:33;6.40;;;2.28;;
7045;SDS011;3564;53.326;10.356;2023-06-04T13:45:58;3.45;;;2.10;;
7045;SDS011;3564;53.326;10.356;2023-06-04T13:48:24;3.00;;;1.70;;
7045;SDS011;3564;53.326;10.356;2023-06-04T13:50:49;2.88;;;2.17;;
7045;SDS011;3564;53.326;10.356;2023-06-04T13:53:15;2.40;;;1.88;;
7045;SDS011;3564;53.326;10.356;2023-06-04T13:55:41;4.75;;;1.90;;
7045;SDS011;3564;53.326;10.356;2023-06-04T13:58:06;2.45;;;1.70;;
7045;SDS011;3564;53.326;10.356;2023-06-04T14:00:33;3.22;;;2.03;;
7045;SDS011;3564;53.326;10.356;2023-06-04T14:02:58;6.30;;;2.05;;
7045;SDS011;3564;53.326;10.356;2023-06-04T14:05:24;2.17;;;1.97;;
7045;SDS011;3564;53.326;10.356;2023-06-04T14:07:52;2.50;;;1.97;;
7045;SDS011;3564;53.326;10.356;2023-06-04T14:10:18;2.92;;;2.03;;
7045;SDS011;3564;53.326;10.356;2023-06-04T14:12:44;2.65;;;1.77;;
7045;SDS011;3564;53.326;10.356;2023-06-04T14:15:10;2.78;;;1.83;;
7045;SDS011;3564;53.326;10.356;2023-06-04T14:17:38;3.88;;;2.15;;
7045;SDS011;3564;53.326;10.356;2023-06-04T14:20:04;3.90;;;1.80;;
7045;SDS011;3564;53.326;10.356;2023-06-04T14:22:34;4.65;;;2.20;;
7045;SDS011;3564;53.326;10.356;2023-06-04T14:25:02;4.45;;;2.50;;
7045;SDS011;3564;53.326;10.356;2023-06-04T14:27:47;4.13;;;2.00;;
7045;SDS011;3564;53.326;10.356;2023-06-04T14:30:12;3.00;;;2.10;;
7045;SDS011;3564;53.326;10.356;2023-06-04T14:32:38;5.65;;;2.05;;
7045;SDS011;3564;53.326;10.356;2023-06-04T14:35:05;2.97;;;1.60;;
7045;SDS011;3564;53.326;10.356;2023-06-04T14:37:31;2.53;;;2.10;;
7045;SDS011;3564;53.326;10.356;2023-06-04T14:39:56;3.67;;;1.80;;
7045;SDS011;3564;53.326;10.356;2023-06-04T14:42:22;3.58;;;1.70;;
7045;SDS011;3564;53.326;10.356;2023-06-04T14:44:47;5.10;;;1.90;;
7045;SDS011;3564;53.326;10.356;2023-06-04T14:47:13;3.15;;;1.85;;
7045;SDS011;3564;53.326;10.356;2023-06-04T14:49:39;4.93;;;2.10;;
7045;SDS011;3564;53.326;10.356;2023-06-04T14:52:06;3.38;;;1.98;;
7045;SDS011;3564;53.326;10.356;2023-06-04T14:54:34;2.95;;;1.80;;
7045;SDS011;3564;53.326;10.356;2023-06-04T14:56:59;3.70;;;1.80;;
7045;SDS011;3564;53.326;10.356;2023-06-04T14:59:26;4.07;;;1.70;;
7045;SDS011;3564;53.326;10.356;2023-06-04T15:01:53;3.70;;;1.98;;
7045;SDS011;3564;53.326;10.356;2023-06-04T15:04:19;2.25;;;1.63;;
7045;SDS011;3564;53.326;10.356;2023-06-04T15:06:45;3.08;;;1.80;;
7045;SDS011;3564;53.326;10.356;2023-06-04T15:09:10;3.28;;;2.35;;
7045;SDS011;3564;53.326;10.356;2023-06-04T15:11:36;2.60;;;1.92;;